sensor_id;sensor_type;location;lat;lon;timestamp;temperature;humidity
51661;DHT22;37741;49.748;8.490;2024-01-27T00:00:08;6.20;86.60
51661;DHT22;37741;49.748;8.490;2024-01-27T00:02:34;6.20;86.70
51661;DHT22;37741;49.748;8.490;2024-01-27T00:05:00;6.20;86.80
51661;DHT22;37741;49.748;8.490;2024-01-27T00:07:25;6.20;86.80
51661;DHT22;37741;49.748;8.490;2024-01-27T00:09:52;6.10;86.80
51661;DHT22;37741;49.748;8.490;2024-01-27T00:12:18;6.10;86.90
51661;DHT22;37741;49.748;8.490;2024-01-27T00:14:43;6.10;86.80
51661;DHT22;37741;49.748;8.490;2024-01-27T00:17:09;6.10;86.90
51661;DHT22;37741;49.748;8.490;2024-01-27T00:19:35;6.10;87.00
51661;DHT22;37741;49.748;8.490;2024-01-27T00:22:01;6.10;87.00
51661;DHT22;37741;49.748;8.490;2024-01-27T00:24:27;6.10;87.00
51661;DHT22;37741;49.748;8.490;2024-01-27T00:26:53;6.10;87.00
51661;DHT22;37741;49.748;8.490;2024-01-27T00:29:19;6.10;87.00
51661;DHT22;37741;49.748;8.490;2024-01-27T00:31:44;6.00;86.80
51661;DHT22;37741;49.748;8.490;2024-01-27T00:34:10;6.00;86.90
51661;DHT22;37741;49.748;8.490;2024-01-27T00:36:35;6.00;86.90
51661;DHT22;37741;49.748;8.490;2024-01-27T00:39:04;6.00;87.00
51661;DHT22;37741;49.748;8.490;2024-01-27T00:41:30;6.00;87.00
51661;DHT22;37741;49.748;8.490;2024-01-27T00:43:55;6.00;86.90
51661;DHT22;37741;49.748;8.490;2024-01-27T00:46:21;6.00;87.00
51661;DHT22;37741;49.748;8.490;2024-01-27T00:48:47;6.00;87.00
51661;DHT22;37741;49.748;8.490;2024-01-27T00:51:13;5.90;87.00
51661;DHT22;37741;49.748;8.490;2024-01-27T00:53:39;5.90;87.00
51661;DHT22;37741;49.748;8.490;2024-01-27T00:56:05;5.90;87.00
51661;DHT22;37741;49.748;8.490;2024-01-27T00:58:30;5.90;86.90
51661;DHT22;37741;49.748;8.490;2024-01-27T01:00:57;5.90;87.00
51661;DHT22;37741;49.748;8.490;2024-01-27T01:03:23;5.90;87.00
51661;DHT22;37741;49.748;8.490;2024-01-27T01:05:49;5.80;87.00
51661;DHT22;37741;49.748;8.490;2024-01-27T01:08:15;5.80;87.10
51661;DHT22;37741;49.748;8.490;2024-01-27T01:10:40;5.80;87.10
51661;DHT22;37741;49.748;8.490;2024-01-27T01:13:06;5.80;87.00
51661;DHT22;37741;49.748;8.490;2024-01-27T01:15:31;5.80;87.00
51661;DHT22;37741;49.748;8.490;2024-01-27T01:17:57;5.80;86.90
51661;DHT22;37741;49.748;8.490;2024-01-27T01:20:22;5.80;87.10
51661;DHT22;37741;49.748;8.490;2024-01-27T01:22:51;5.80;87.10
51661;DHT22;37741;49.748;8.490;2024-01-27T01:25:17;5.70;86.90
51661;DHT22;37741;49.748;8.490;2024-01-27T01:27:42;5.70;86.90
51661;DHT22;37741;49.748;8.490;2024-01-27T01:30:08;5.70;86.90
51661;DHT22;37741;49.748;8.490;2024-01-27T01:32:35;5.60;86.90
51661;DHT22;37741;49.748;8.490;2024-01-27T01:35:00;5.70;86.90
51661;DHT22;37741;49.748;8.490;2024-01-27T01:37:26;5.60;86.80
51661;DHT22;37741;49.748;8.490;2024-01-27T01:39:51;5.60;86.90
51661;DHT22;37741;49.748;8.490;2024-01-27T01:42:17;5.60;87.50
51661;DHT22;37741;49.748;8.490;2024-01-27T01:44:43;5.60;87.20
51661;DHT22;37741;49.748;8.490;2024-01-27T01:47:09;5.50;87.20
51661;DHT22;37741;49.748;8.490;2024-01-27T01:49:36;5.50;87.20
51661;DHT22;37741;49.748;8.490;2024-01-27T01:52:01;5.50;87.10
51661;DHT22;37741;49.748;8.490;2024-01-27T01:54:27;5.50;87.20
51661;DHT22;37741;49.748;8.490;2024-01-27T01:56:55;5.50;87.10
51661;DHT22;37741;49.748;8.490;2024-01-27T01:59:21;5.50;87.10
51661;DHT22;37741;49.748;8.490;2024-01-27T02:01:46;5.40;87.00
51661;DHT22;37741;49.748;8.490;2024-01-27T02:04:12;5.40;87.00
51661;DHT22;37741;49.748;8.490;2024-01-27T02:06:38;5.40;87.10
51661;DHT22;37741;49.748;8.490;2024-01-27T02:09:03;5.40;87.20
51661;DHT22;37741;49.748;8.490;2024-01-27T02:11:30;5.40;87.20
51661;DHT22;37741;49.748;8.490;2024-01-27T02:13:56;5.40;87.30
51661;DHT22;37741;49.748;8.490;2024-01-27T02:16:21;5.30;87.20
51661;DHT22;37741;49.748;8.490;2024-01-27T02:18:47;5.30;87.30
51661;DHT22;37741;49.748;8.490;2024-01-27T02:21:13;5.30;87.30
51661;DHT22;37741;49.748;8.490;2024-01-27T02:23:38;5.30;87.30
51661;DHT22;37741;49.748;8.490;2024-01-27T02:26:04;5.30;87.30
51661;DHT22;37741;49.748;8.490;2024-01-27T02:28:30;5.20;87.30
51661;DHT22;37741;49.748;8.490;2024-01-27T02:30:57;5.20;87.30
51661;DHT22;37741;49.748;8.490;2024-01-27T02:33:25;5.20;87.30
51661;DHT22;37741;49.748;8.490;2024-01-27T02:35:51;5.20;87.40
51661;DHT22;37741;49.748;8.490;2024-01-27T02:38:16;5.20;87.40
51661;DHT22;37741;49.748;8.490;2024-01-27T02:40:42;5.20;87.40
51661;DHT22;37741;49.748;8.490;2024-01-27T02:43:07;5.20;87.40
51661;DHT22;37741;49.748;8.490;2024-01-27T02:45:33;5.10;87.40
51661;DHT22;37741;49.748;8.490;2024-01-27T02:47:58;5.10;87.40
51661;DHT22;37741;49.748;8.490;2024-01-27T02:50:24;5.10;87.40
51661;DHT22;37741;49.748;8.490;2024-01-27T02:52:50;5.10;87.40
51661;DHT22;37741;49.748;8.490;2024-01-27T02:55:15;5.10;87.40
51661;DHT22;37741;49.748;8.490;2024-01-27T02:57:41;5.00;87.30
51661;DHT22;37741;49.748;8.490;2024-01-27T03:00:07;5.00;87.30
51661;DHT22;37741;49.748;8.490;2024-01-27T03:02:33;5.00;87.20
51661;DHT22;37741;49.748;8.490;2024-01-27T03:04:59;5.00;87.20
51661;DHT22;37741;49.748;8.490;2024-01-27T03:07:25;5.00;87.20
51661;DHT22;37741;49.748;8.490;2024-01-27T03:09:50;5.00;87.20
51661;DHT22;37741;49.748;8.490;2024-01-27T03:12:16;5.00;87.20
51661;DHT22;37741;49.748;8.490;2024-01-27T03:14:43;5.00;87.10
51661;DHT22;37741;49.748;8.490;2024-01-27T03:17:09;5.00;87.10
51661;DHT22;37741;49.748;8.490;2024-01-27T03:19:34;5.00;87.10
51661;DHT22;37741;49.748;8.490;2024-01-27T03:22:00;4.90;86.90
51661;DHT22;37741;49.748;8.490;2024-01-27T03:24:25;4.90;86.90
51661;DHT22;37741;49.748;8.490;2024-01-27T03:26:51;4.90;86.90
51661;DHT22;37741;49.748;8.490;2024-01-27T03:29:17;4.90;86.90
51661;DHT22;37741;49.748;8.490;2024-01-27T03:31:45;4.80;86.80
51661;DHT22;37741;49.748;8.490;2024-01-27T03:34:10;4.80;86.90
51661;DHT22;37741;49.748;8.490;2024-01-27T03:36:36;4.80;86.80
51661;DHT22;37741;49.748;8.490;2024-01-27T03:39:01;4.80;86.80
51661;DHT22;37741;49.748;8.490;2024-01-27T03:41:28;4.80;86.90
51661;DHT22;37741;49.748;8.490;2024-01-27T03:43:54;4.80;86.90
51661;DHT22;37741;49.748;8.490;2024-01-27T03:46:19;4.70;86.80
51661;DHT22;37741;49.748;8.490;2024-01-27T03:48:45;4.70;86.90
51661;DHT22;37741;49.748;8.490;2024-01-27T03:51:10;4.70;87.00
51661;DHT22;37741;49.748;8.490;2024-01-27T03:53:36;4.70;86.90
51661;DHT22;37741;49.748;8.490;2024-01-27T03:56:02;4.70;86.90
51661;DHT22;37741;49.748;8.490;2024-01-27T03:58:29;4.70;86.90
51661;DHT22;37741;49.748;8.490;2024-01-27T04:00:56;4.60;86.90
51661;DHT22;37741;49.748;8.490;2024-01-27T04:03:22;4.60;86.90
51661;DHT22;37741;49.748;8.490;2024-01-27T04:05:48;4.60;86.80
51661;DHT22;37741;49.748;8.490;2024-01-27T04:08:13;4.60;86.90
51661;DHT22;37741;49.748;8.490;2024-01-27T04:10:39;4.60;86.90
51661;DHT22;37741;49.748;8.490;2024-01-27T04:13:04;4.60;86.90
51661;DHT22;37741;49.748;8.490;2024-01-27T04:15:33;4.50;86.90
51661;DHT22;37741;49.748;8.490;2024-01-27T04:18:04;4.50;86.90
51661;DHT22;37741;49.748;8.490;2024-01-27T04:20:30;4.50;86.90
51661;DHT22;37741;49.748;8.490;2024-01-27T04:22:55;4.50;86.90
51661;DHT22;37741;49.748;8.490;2024-01-27T04:25:21;4.50;86.90
51661;DHT22;37741;49.748;8.490;2024-01-27T04:27:46;4.50;86.90
51661;DHT22;37741;49.748;8.490;2024-01-27T04:30:12;4.40;86.80
51661;DHT22;37741;49.748;8.490;2024-01-27T04:32:38;4.40;86.80
51661;DHT22;37741;49.748;8.490;2024-01-27T04:35:04;4.40;86.80
51661;DHT22;37741;49.748;8.490;2024-01-27T04:37:33;4.40;86.80
51661;DHT22;37741;49.748;8.490;2024-01-27T04:39:59;4.40;86.80
51661;DHT22;37741;49.748;8.490;2024-01-27T04:42:24;4.40;86.80
51661;DHT22;37741;49.748;8.490;2024-01-27T04:44:50;4.40;86.90
51661;DHT22;37741;49.748;8.490;2024-01-27T04:47:16;4.30;86.80
51661;DHT22;37741;49.748;8.490;2024-01-27T04:49:42;4.40;86.80
51661;DHT22;37741;49.748;8.490;2024-01-27T04:52:07;4.30;86.80
51661;DHT22;37741;49.748;8.490;2024-01-27T04:54:33;4.30;86.80
51661;DHT22;37741;49.748;8.490;2024-01-27T04:56:58;4.30;86.80
51661;DHT22;37741;49.748;8.490;2024-01-27T04:59:24;4.30;86.80
51661;DHT22;37741;49.748;8.490;2024-01-27T05:01:50;4.20;86.70
51661;DHT22;37741;49.748;8.490;2024-01-27T05:04:16;4.20;86.80
51661;DHT22;37741;49.748;8.490;2024-01-27T05:06:45;4.20;86.80
51661;DHT22;37741;49.748;8.490;2024-01-27T05:09:14;4.20;86.80
51661;DHT22;37741;49.748;8.490;2024-01-27T05:11:41;4.20;86.80
51661;DHT22;37741;49.748;8.490;2024-01-27T05:14:08;4.20;87.40
51661;DHT22;37741;49.748;8.490;2024-01-27T05:16:33;4.20;86.80
51661;DHT22;37741;49.748;8.490;2024-01-27T05:18:59;4.20;86.80
51661;DHT22;37741;49.748;8.490;2024-01-27T05:21:25;4.10;86.70
51661;DHT22;37741;49.748;8.490;2024-01-27T05:23:50;4.10;86.80
51661;DHT22;37741;49.748;8.490;2024-01-27T05:26:16;4.10;86.80
51661;DHT22;37741;49.748;8.490;2024-01-27T05:28:42;4.10;86.80
51661;DHT22;37741;49.748;8.490;2024-01-27T05:31:07;4.10;86.80
51661;DHT22;37741;49.748;8.490;2024-01-27T05:33:34;4.00;86.70
51661;DHT22;37741;49.748;8.490;2024-01-27T05:36:00;4.00;86.80
51661;DHT22;37741;49.748;8.490;2024-01-27T05:38:25;4.00;86.80
51661;DHT22;37741;49.748;8.490;2024-01-27T05:40:51;4.00;86.80
51661;DHT22;37741;49.748;8.490;2024-01-27T05:43:18;4.00;86.70
51661;DHT22;37741;49.748;8.490;2024-01-27T05:45:44;4.00;86.80
51661;DHT22;37741;49.748;8.490;2024-01-27T05:48:10;4.00;87.40
51661;DHT22;37741;49.748;8.490;2024-01-27T05:50:36;3.90;86.70
51661;DHT22;37741;49.748;8.490;2024-01-27T05:53:02;3.90;86.70
51661;DHT22;37741;49.748;8.490;2024-01-27T05:55:28;3.90;86.70
51661;DHT22;37741;49.748;8.490;2024-01-27T05:57:54;3.90;86.80
51661;DHT22;37741;49.748;8.490;2024-01-27T06:00:22;3.90;86.80
51661;DHT22;37741;49.748;8.490;2024-01-27T06:02:47;3.90;87.40
51661;DHT22;37741;49.748;8.490;2024-01-27T06:05:13;3.80;86.70
51661;DHT22;37741;49.748;8.490;2024-01-27T06:07:39;3.80;86.70
51661;DHT22;37741;49.748;8.490;2024-01-27T06:10:08;3.80;86.80
51661;DHT22;37741;49.748;8.490;2024-01-27T06:12:33;3.80;86.70
51661;DHT22;37741;49.748;8.490;2024-01-27T06:15:00;3.80;86.70
51661;DHT22;37741;49.748;8.490;2024-01-27T06:17:25;3.80;86.70
51661;DHT22;37741;49.748;8.490;2024-01-27T06:19:51;3.70;86.70
51661;DHT22;37741;49.748;8.490;2024-01-27T06:22:16;3.70;86.80
51661;DHT22;37741;49.748;8.490;2024-01-27T06:24:44;3.70;86.70
51661;DHT22;37741;49.748;8.490;2024-01-27T06:27:11;3.70;86.70
51661;DHT22;37741;49.748;8.490;2024-01-27T06:29:37;3.70;86.80
51661;DHT22;37741;49.748;8.490;2024-01-27T06:32:03;3.70;86.80
51661;DHT22;37741;49.748;8.490;2024-01-27T06:34:28;3.70;86.80
51661;DHT22;37741;49.748;8.490;2024-01-27T06:36:54;3.60;86.80
51661;DHT22;37741;49.748;8.490;2024-01-27T06:39:19;3.60;86.80
51661;DHT22;37741;49.748;8.490;2024-01-27T06:41:47;3.60;86.90
51661;DHT22;37741;49.748;8.490;2024-01-27T06:44:13;3.60;86.80
51661;DHT22;37741;49.748;8.490;2024-01-27T06:46:38;3.50;86.80
51661;DHT22;37741;49.748;8.490;2024-01-27T06:49:04;3.60;86.90
51661;DHT22;37741;49.748;8.490;2024-01-27T06:51:29;3.60;86.90
51661;DHT22;37741;49.748;8.490;2024-01-27T06:53:55;3.50;86.80
51661;DHT22;37741;49.748;8.490;2024-01-27T06:56:20;3.50;86.80
51661;DHT22;37741;49.748;8.490;2024-01-27T06:58:46;3.50;86.80
51661;DHT22;37741;49.748;8.490;2024-01-27T07:01:11;3.50;86.90
51661;DHT22;37741;49.748;8.490;2024-01-27T07:03:37;3.50;86.90
51661;DHT22;37741;49.748;8.490;2024-01-27T07:06:05;3.50;86.90
51661;DHT22;37741;49.748;8.490;2024-01-27T07:08:30;3.40;86.90
51661;DHT22;37741;49.748;8.490;2024-01-27T07:10:58;3.40;86.90
51661;DHT22;37741;49.748;8.490;2024-01-27T07:13:23;3.40;86.90
51661;DHT22;37741;49.748;8.490;2024-01-27T07:15:49;3.40;86.90
51661;DHT22;37741;49.748;8.490;2024-01-27T07:18:15;3.40;86.90
51661;DHT22;37741;49.748;8.490;2024-01-27T07:20:40;3.40;87.00
51661;DHT22;37741;49.748;8.490;2024-01-27T07:23:06;3.40;87.10
51661;DHT22;37741;49.748;8.490;2024-01-27T07:25:32;3.40;87.00
51661;DHT22;37741;49.748;8.490;2024-01-27T07:27:57;3.30;87.00
51661;DHT22;37741;49.748;8.490;2024-01-27T07:30:23;3.30;87.00
51661;DHT22;37741;49.748;8.490;2024-01-27T07:32:48;3.30;87.00
51661;DHT22;37741;49.748;8.490;2024-01-27T07:35:14;3.30;87.10
51661;DHT22;37741;49.748;8.490;2024-01-27T07:37:39;3.30;87.10
51661;DHT22;37741;49.748;8.490;2024-01-27T07:40:06;3.30;87.10
51661;DHT22;37741;49.748;8.490;2024-01-27T07:42:31;3.20;87.00
51661;DHT22;37741;49.748;8.490;2024-01-27T07:44:57;3.20;87.10
51661;DHT22;37741;49.748;8.490;2024-01-27T07:47:23;3.20;87.10
51661;DHT22;37741;49.748;8.490;2024-01-27T07:49:48;3.20;87.20
51661;DHT22;37741;49.748;8.490;2024-01-27T07:52:14;3.20;87.10
51661;DHT22;37741;49.748;8.490;2024-01-27T07:54:40;3.20;87.20
51661;DHT22;37741;49.748;8.490;2024-01-27T07:57:06;3.20;87.20
51661;DHT22;37741;49.748;8.490;2024-01-27T07:59:32;3.20;87.20
51661;DHT22;37741;49.748;8.490;2024-01-27T08:01:59;3.10;87.20
51661;DHT22;37741;49.748;8.490;2024-01-27T08:04:25;3.20;87.30
51661;DHT22;37741;49.748;8.490;2024-01-27T08:06:51;3.10;87.30
51661;DHT22;37741;49.748;8.490;2024-01-27T08:09:17;3.10;87.30
51661;DHT22;37741;49.748;8.490;2024-01-27T08:11:43;3.10;87.40
51661;DHT22;37741;49.748;8.490;2024-01-27T08:14:09;3.10;87.40
51661;DHT22;37741;49.748;8.490;2024-01-27T08:16:35;3.10;87.40
51661;DHT22;37741;49.748;8.490;2024-01-27T08:19:01;3.10;87.50
51661;DHT22;37741;49.748;8.490;2024-01-27T08:21:27;3.00;87.40
51661;DHT22;37741;49.748;8.490;2024-01-27T08:23:53;3.00;87.50
51661;DHT22;37741;49.748;8.490;2024-01-27T08:26:20;3.00;87.50
51661;DHT22;37741;49.748;8.490;2024-01-27T08:28:47;3.00;87.60
51661;DHT22;37741;49.748;8.490;2024-01-27T08:31:12;3.00;87.70
51661;DHT22;37741;49.748;8.490;2024-01-27T08:33:38;3.00;87.70
51661;DHT22;37741;49.748;8.490;2024-01-27T08:36:04;3.00;87.70
51661;DHT22;37741;49.748;8.490;2024-01-27T08:38:29;3.00;87.70
51661;DHT22;37741;49.748;8.490;2024-01-27T08:40:55;3.00;87.70
51661;DHT22;37741;49.748;8.490;2024-01-27T08:43:20;3.00;87.80
51661;DHT22;37741;49.748;8.490;2024-01-27T08:45:46;3.00;87.80
51661;DHT22;37741;49.748;8.490;2024-01-27T08:48:12;3.00;87.80
51661;DHT22;37741;49.748;8.490;2024-01-27T08:50:38;2.90;87.80
51661;DHT22;37741;49.748;8.490;2024-01-27T08:53:03;3.00;87.90
51661;DHT22;37741;49.748;8.490;2024-01-27T08:55:29;2.90;87.90
51661;DHT22;37741;49.748;8.490;2024-01-27T08:57:56;2.90;88.00
51661;DHT22;37741;49.748;8.490;2024-01-27T09:00:21;2.90;88.00
51661;DHT22;37741;49.748;8.490;2024-01-27T09:02:47;2.90;88.10
51661;DHT22;37741;49.748;8.490;2024-01-27T09:05:13;2.90;88.20
51661;DHT22;37741;49.748;8.490;2024-01-27T09:07:39;2.90;88.20
51661;DHT22;37741;49.748;8.490;2024-01-27T09:10:05;2.90;88.30
51661;DHT22;37741;49.748;8.490;2024-01-27T09:12:30;2.90;88.40
51661;DHT22;37741;49.748;8.490;2024-01-27T09:14:56;2.90;88.40
51661;DHT22;37741;49.748;8.490;2024-01-27T09:17:22;2.90;88.40
51661;DHT22;37741;49.748;8.490;2024-01-27T09:19:47;2.80;88.40
51661;DHT22;37741;49.748;8.490;2024-01-27T09:22:13;2.80;88.40
51661;DHT22;37741;49.748;8.490;2024-01-27T09:24:40;2.80;88.50
51661;DHT22;37741;49.748;8.490;2024-01-27T09:27:06;2.90;89.20
51661;DHT22;37741;49.748;8.490;2024-01-27T09:29:31;2.80;88.50
51661;DHT22;37741;49.748;8.490;2024-01-27T09:31:57;2.80;88.50
51661;DHT22;37741;49.748;8.490;2024-01-27T09:34:22;2.90;88.60
51661;DHT22;37741;49.748;8.490;2024-01-27T09:36:48;2.90;89.20
51661;DHT22;37741;49.748;8.490;2024-01-27T09:39:14;2.90;88.60
51661;DHT22;37741;49.748;8.490;2024-01-27T09:41:40;2.90;88.60
51661;DHT22;37741;49.748;8.490;2024-01-27T09:44:06;2.90;88.60
51661;DHT22;37741;49.748;8.490;2024-01-27T09:46:32;2.90;88.60
51661;DHT22;37741;49.748;8.490;2024-01-27T09:48:57;2.90;88.60
51661;DHT22;37741;49.748;8.490;2024-01-27T09:51:24;2.90;88.60
51661;DHT22;37741;49.748;8.490;2024-01-27T09:53:51;2.90;88.60
51661;DHT22;37741;49.748;8.490;2024-01-27T09:56:16;2.90;88.60
51661;DHT22;37741;49.748;8.490;2024-01-27T09:58:46;2.90;88.80
51661;DHT22;37741;49.748;8.490;2024-01-27T10:01:12;2.90;88.90
51661;DHT22;37741;49.748;8.490;2024-01-27T10:03:41;2.90;88.80
51661;DHT22;37741;49.748;8.490;2024-01-27T10:06:09;2.90;88.90
51661;DHT22;37741;49.748;8.490;2024-01-27T10:08:35;2.90;88.90
51661;DHT22;37741;49.748;8.490;2024-01-27T10:11:08;2.90;88.80
51661;DHT22;37741;49.748;8.490;2024-01-27T10:13:36;2.90;88.90
51661;DHT22;37741;49.748;8.490;2024-01-27T10:16:06;2.80;88.80
51661;DHT22;37741;49.748;8.490;2024-01-27T10:18:33;2.90;89.00
51661;DHT22;37741;49.748;8.490;2024-01-27T10:20:59;2.90;89.00
51661;DHT22;37741;49.748;8.490;2024-01-27T10:23:25;2.90;89.00
51661;DHT22;37741;49.748;8.490;2024-01-27T10:25:51;2.90;89.00
51661;DHT22;37741;49.748;8.490;2024-01-27T10:28:20;2.90;89.00
51661;DHT22;37741;49.748;8.490;2024-01-27T10:30:47;2.90;89.10
51661;DHT22;37741;49.748;8.490;2024-01-27T10:33:14;2.90;89.00
51661;DHT22;37741;49.748;8.490;2024-01-27T10:35:40;2.90;89.20
51661;DHT22;37741;49.748;8.490;2024-01-27T10:38:06;2.90;89.10
51661;DHT22;37741;49.748;8.490;2024-01-27T10:40:35;2.90;89.00
51661;DHT22;37741;49.748;8.490;2024-01-27T10:43:07;2.90;89.00
51661;DHT22;37741;49.748;8.490;2024-01-27T10:45:41;2.90;89.10
51661;DHT22;37741;49.748;8.490;2024-01-27T10:48:09;2.90;89.00
51661;DHT22;37741;49.748;8.490;2024-01-27T10:50:37;3.00;89.10
51661;DHT22;37741;49.748;8.490;2024-01-27T10:53:05;3.00;89.10
51661;DHT22;37741;49.748;8.490;2024-01-27T10:55:36;3.00;89.00
51661;DHT22;37741;49.748;8.490;2024-01-27T10:58:04;3.00;89.10
51661;DHT22;37741;49.748;8.490;2024-01-27T11:00:30;3.00;89.20
51661;DHT22;37741;49.748;8.490;2024-01-27T11:03:01;3.00;89.10
51661;DHT22;37741;49.748;8.490;2024-01-27T11:05:28;3.00;89.30
51661;DHT22;37741;49.748;8.490;2024-01-27T11:07:58;3.00;89.20
51661;DHT22;37741;49.748;8.490;2024-01-27T11:10:25;3.00;89.10
51661;DHT22;37741;49.748;8.490;2024-01-27T11:12:53;3.00;89.20
51661;DHT22;37741;49.748;8.490;2024-01-27T11:15:21;3.00;89.30
51661;DHT22;37741;49.748;8.490;2024-01-27T11:17:47;3.00;89.40
51661;DHT22;37741;49.748;8.490;2024-01-27T11:20:12;3.10;89.30
51661;DHT22;37741;49.748;8.490;2024-01-27T11:22:40;3.10;89.30
51661;DHT22;37741;49.748;8.490;2024-01-27T11:25:08;3.10;89.60
51661;DHT22;37741;49.748;8.490;2024-01-27T11:27:41;3.10;89.40
51661;DHT22;37741;49.748;8.490;2024-01-27T11:30:28;3.20;89.30
51661;DHT22;37741;49.748;8.490;2024-01-27T11:32:56;3.10;89.20
51661;DHT22;37741;49.748;8.490;2024-01-27T11:35:23;3.20;89.20
51661;DHT22;37741;49.748;8.490;2024-01-27T11:37:49;3.20;89.40
51661;DHT22;37741;49.748;8.490;2024-01-27T11:40:15;3.20;89.20
51661;DHT22;37741;49.748;8.490;2024-01-27T11:42:41;3.20;89.40
51661;DHT22;37741;49.748;8.490;2024-01-27T11:45:11;3.20;88.90
51661;DHT22;37741;49.748;8.490;2024-01-27T11:47:38;3.20;89.10
51661;DHT22;37741;49.748;8.490;2024-01-27T11:50:04;3.30;89.10
51661;DHT22;37741;49.748;8.490;2024-01-27T11:52:29;3.30;89.50
51661;DHT22;37741;49.748;8.490;2024-01-27T11:54:59;3.30;89.50
51661;DHT22;37741;49.748;8.490;2024-01-27T11:57:25;3.30;89.50
51661;DHT22;37741;49.748;8.490;2024-01-27T11:59:55;3.30;89.30
51661;DHT22;37741;49.748;8.490;2024-01-27T12:02:21;3.40;89.00
51661;DHT22;37741;49.748;8.490;2024-01-27T12:04:47;3.40;89.00
51661;DHT22;37741;49.748;8.490;2024-01-27T12:07:16;3.40;89.10
51661;DHT22;37741;49.748;8.490;2024-01-27T12:09:45;3.40;89.00
51661;DHT22;37741;49.748;8.490;2024-01-27T12:12:12;3.50;89.00
51661;DHT22;37741;49.748;8.490;2024-01-27T12:14:39;3.50;88.80
51661;DHT22;37741;49.748;8.490;2024-01-27T12:17:08;3.40;88.80
51661;DHT22;37741;49.748;8.490;2024-01-27T12:19:34;3.40;89.10
51661;DHT22;37741;49.748;8.490;2024-01-27T12:22:00;3.50;89.40
51661;DHT22;37741;49.748;8.490;2024-01-27T12:24:25;3.50;89.50
51661;DHT22;37741;49.748;8.490;2024-01-27T12:26:51;3.50;89.50
51661;DHT22;37741;49.748;8.490;2024-01-27T12:29:19;3.60;89.40
51661;DHT22;37741;49.748;8.490;2024-01-27T12:31:45;3.60;89.30
51661;DHT22;37741;49.748;8.490;2024-01-27T12:34:11;3.60;89.40
51661;DHT22;37741;49.748;8.490;2024-01-27T12:36:41;3.70;89.20
51661;DHT22;37741;49.748;8.490;2024-01-27T12:39:06;3.70;89.20
51661;DHT22;37741;49.748;8.490;2024-01-27T12:41:34;3.80;88.90
51661;DHT22;37741;49.748;8.490;2024-01-27T12:43:59;3.70;88.80
51661;DHT22;37741;49.748;8.490;2024-01-27T12:46:25;3.70;88.70
51661;DHT22;37741;49.748;8.490;2024-01-27T12:48:51;3.80;88.60
51661;DHT22;37741;49.748;8.490;2024-01-27T12:51:17;3.80;88.30
51661;DHT22;37741;49.748;8.490;2024-01-27T12:53:43;3.80;88.00
51661;DHT22;37741;49.748;8.490;2024-01-27T12:56:15;3.80;88.00
51661;DHT22;37741;49.748;8.490;2024-01-27T12:58:42;3.90;87.80
51661;DHT22;37741;49.748;8.490;2024-01-27T13:01:08;3.90;87.80
51661;DHT22;37741;49.748;8.490;2024-01-27T13:03:34;3.80;87.70
51661;DHT22;37741;49.748;8.490;2024-01-27T13:06:00;3.90;87.70
51661;DHT22;37741;49.748;8.490;2024-01-27T13:08:26;3.90;87.80
51661;DHT22;37741;49.748;8.490;2024-01-27T13:10:52;3.90;87.50
51661;DHT22;37741;49.748;8.490;2024-01-27T13:13:17;4.00;87.50
51661;DHT22;37741;49.748;8.490;2024-01-27T13:15:43;4.00;87.40
51661;DHT22;37741;49.748;8.490;2024-01-27T13:18:09;4.00;87.20
51661;DHT22;37741;49.748;8.490;2024-01-27T13:20:38;4.10;87.10
51661;DHT22;37741;49.748;8.490;2024-01-27T13:23:05;4.10;86.80
51661;DHT22;37741;49.748;8.490;2024-01-27T13:25:31;4.10;86.40
51661;DHT22;37741;49.748;8.490;2024-01-27T13:27:57;4.10;86.20
51661;DHT22;37741;49.748;8.490;2024-01-27T13:30:23;4.20;86.10
51661;DHT22;37741;49.748;8.490;2024-01-27T13:32:49;4.20;86.30
51661;DHT22;37741;49.748;8.490;2024-01-27T13:35:15;4.20;86.00
51661;DHT22;37741;49.748;8.490;2024-01-27T13:37:40;4.20;85.60
51661;DHT22;37741;49.748;8.490;2024-01-27T13:40:07;4.30;85.60
51661;DHT22;37741;49.748;8.490;2024-01-27T13:42:38;4.30;85.90
51661;DHT22;37741;49.748;8.490;2024-01-27T13:45:04;4.30;85.90
51661;DHT22;37741;49.748;8.490;2024-01-27T13:47:30;4.30;85.00
51661;DHT22;37741;49.748;8.490;2024-01-27T13:49:56;4.30;84.70
51661;DHT22;37741;49.748;8.490;2024-01-27T13:52:23;4.40;85.30
51661;DHT22;37741;49.748;8.490;2024-01-27T13:54:48;4.30;85.80
51661;DHT22;37741;49.748;8.490;2024-01-27T13:57:15;4.30;86.10
51661;DHT22;37741;49.748;8.490;2024-01-27T13:59:41;4.40;85.40
51661;DHT22;37741;49.748;8.490;2024-01-27T14:02:06;4.40;84.70
51661;DHT22;37741;49.748;8.490;2024-01-27T14:04:32;4.50;83.70
51661;DHT22;37741;49.748;8.490;2024-01-27T14:06:59;4.50;83.70
51661;DHT22;37741;49.748;8.490;2024-01-27T14:09:28;4.50;84.50
51661;DHT22;37741;49.748;8.490;2024-01-27T14:11:54;4.50;85.30
51661;DHT22;37741;49.748;8.490;2024-01-27T14:14:19;4.50;85.60
51661;DHT22;37741;49.748;8.490;2024-01-27T14:16:46;4.50;85.70
51661;DHT22;37741;49.748;8.490;2024-01-27T14:19:12;4.50;84.60
51661;DHT22;37741;49.748;8.490;2024-01-27T14:21:38;4.50;83.70
51661;DHT22;37741;49.748;8.490;2024-01-27T14:24:06;4.50;84.40
51661;DHT22;37741;49.748;8.490;2024-01-27T14:26:32;4.50;85.10
51661;DHT22;37741;49.748;8.490;2024-01-27T14:28:58;4.50;83.60
51661;DHT22;37741;49.748;8.490;2024-01-27T14:31:24;4.50;84.90
51661;DHT22;37741;49.748;8.490;2024-01-27T14:33:50;4.50;84.90
51661;DHT22;37741;49.748;8.490;2024-01-27T14:36:16;4.60;84.00
51661;DHT22;37741;49.748;8.490;2024-01-27T14:38:41;4.60;84.20
51661;DHT22;37741;49.748;8.490;2024-01-27T14:41:08;4.60;84.00
51661;DHT22;37741;49.748;8.490;2024-01-27T14:43:33;4.60;83.10
51661;DHT22;37741;49.748;8.490;2024-01-27T14:45:59;4.60;84.40
51661;DHT22;37741;49.748;8.490;2024-01-27T14:48:25;4.60;84.90
51661;DHT22;37741;49.748;8.490;2024-01-27T14:50:51;4.60;85.10
51661;DHT22;37741;49.748;8.490;2024-01-27T14:53:24;4.60;85.20
51661;DHT22;37741;49.748;8.490;2024-01-27T14:55:50;4.60;85.30
51661;DHT22;37741;49.748;8.490;2024-01-27T14:58:16;4.60;85.40
51661;DHT22;37741;49.748;8.490;2024-01-27T15:00:42;4.60;85.60
51661;DHT22;37741;49.748;8.490;2024-01-27T15:03:08;4.60;85.00
51661;DHT22;37741;49.748;8.490;2024-01-27T15:05:35;4.60;85.40
51661;DHT22;37741;49.748;8.490;2024-01-27T15:08:03;4.60;85.00
51661;DHT22;37741;49.748;8.490;2024-01-27T15:10:29;4.60;85.00
51661;DHT22;37741;49.748;8.490;2024-01-27T15:12:54;4.60;85.30
51661;DHT22;37741;49.748;8.490;2024-01-27T15:15:21;4.70;85.40
51661;DHT22;37741;49.748;8.490;2024-01-27T15:17:46;4.70;85.20
51661;DHT22;37741;49.748;8.490;2024-01-27T15:20:12;4.60;85.20
51661;DHT22;37741;49.748;8.490;2024-01-27T15:22:38;4.60;85.40
51661;DHT22;37741;49.748;8.490;2024-01-27T15:25:04;4.60;85.50
51661;DHT22;37741;49.748;8.490;2024-01-27T15:27:30;4.60;85.50
51661;DHT22;37741;49.748;8.490;2024-01-27T15:29:56;4.60;85.60
51661;DHT22;37741;49.748;8.490;2024-01-27T15:32:22;4.60;85.60
51661;DHT22;37741;49.748;8.490;2024-01-27T15:34:49;4.60;85.30
51661;DHT22;37741;49.748;8.490;2024-01-27T15:37:17;4.70;85.30